Search for airport 
image banner adimage banner ad
image banner ad

EERA - Rapla

Located in Rapla, Estonia

ICAO - EERA, IATA -

Data provided by Airmate  

General information

Coordinates: N58°59'11" E24°43'28"
Elevation is 216 feet MSL.
Magnetic variation is 7° East
Rated:
View ratings: [VIEW]


View others Airports in Rapla County

Operational data

Open for public use
Current time UTC:
Current local time:
Weather at : EEEI - Amari ( 42 km )
TAF: TAF EEEI 201730Z 2018/2118 21010KT 9999 SCT030 BECMG 2021/2023 4000 RA BKN005 OVC015 BECMG 2106/2108 31014KT TEMPO 2112/2118 31014G26KT BECMG 2115/2117 9999 NSW SCT010 BKN012
View NOTAMs / SUP AIP / TFR affecting this airport [VIEW]
Communications frequencies: [VIEW]

Runways:

RWY identifierQFULength (ft)Width (ft)SurfaceLDA (ft)
15L155°2625197GRASS
33R335°2625197GRASS
15R155°4921197GRASS
33L335°4921197GRASS

Airport contact information

Address: Rapla Estonia

Satellite view of EERA